createdAt,value
2018-05-16T00:00:43.976Z,92.40
2018-05-16T00:03:11.463Z,92.40
2018-05-16T00:05:38.988Z,93.10
2018-05-16T00:08:06.483Z,93.50
2018-05-16T00:10:34.000Z,92.50
2018-05-16T00:13:01.492Z,92.40
2018-05-16T00:15:29.775Z,91.90
2018-05-16T00:17:58.027Z,91.80
2018-05-16T00:20:25.544Z,91.80
2018-05-16T00:22:53.819Z,92.20
2018-05-16T00:25:22.101Z,92.20
2018-05-16T00:27:49.591Z,92.20
2018-05-16T00:30:17.867Z,92.90
2018-05-16T00:32:46.128Z,93.60
2018-05-16T00:35:13.652Z,93.60
2018-05-16T00:37:41.143Z,92.80
2018-05-16T00:40:08.664Z,92.90
2018-05-16T00:42:36.161Z,93.70
2018-05-16T00:45:03.686Z,93.90
2018-05-16T00:47:31.944Z,94.20
2018-05-16T00:49:59.466Z,94.20
2018-05-16T00:52:26.961Z,94.30
2018-05-16T00:54:55.245Z,93.80
2018-05-16T00:57:23.523Z,93.70
2018-05-16T00:59:51.824Z,93.70
2018-05-16T01:02:20.083Z,93.70
2018-05-16T01:04:47.595Z,93.60
2018-05-16T01:07:15.084Z,93.70
2018-05-16T01:09:42.599Z,94.10
2018-05-16T01:12:10.875Z,94.10
2018-05-16T01:14:38.400Z,94.00
2018-05-16T01:17:05.888Z,94.20
2018-05-16T01:19:33.391Z,94.20
2018-05-16T01:22:00.907Z,94.40
2018-05-16T01:24:28.405Z,94.70
2018-05-16T01:26:55.924Z,94.50
2018-05-16T01:29:23.427Z,94.50
2018-05-16T01:31:50.939Z,95.20
2018-05-16T01:34:18.431Z,94.70
2018-05-16T01:36:45.960Z,95.00
2018-05-16T01:39:13.455Z,95.40
2018-05-16T01:41:41.743Z,96.00
2018-05-16T01:44:09.247Z,96.00
2018-05-16T01:46:37.543Z,96.40
2018-05-16T01:49:23.419Z,96.60
2018-05-16T01:51:50.943Z,96.60
2018-05-16T01:54:18.438Z,96.70
2018-05-16T01:56:45.959Z,97.70
2018-05-16T01:59:14.219Z,99.20
2018-05-16T02:01:41.732Z,99.10
2018-05-16T02:04:09.991Z,99.20
2018-05-16T02:06:37.532Z,99.20
2018-05-16T02:09:05.744Z,99.90
2018-05-16T02:11:33.262Z,99.90
2018-05-16T02:14:00.747Z,99.90
2018-05-16T02:16:28.280Z,99.90
2018-05-16T02:18:56.534Z,99.90
2018-05-16T02:21:24.060Z,99.90
2018-05-16T02:23:51.551Z,99.90
2018-05-16T02:26:19.086Z,99.90
2018-05-16T02:28:47.339Z,99.90
2018-05-16T02:31:14.855Z,99.90
2018-05-16T02:33:43.115Z,99.90
2018-05-16T02:36:10.636Z,99.90
2018-05-16T02:38:38.144Z,99.90
2018-05-16T02:41:05.669Z,99.90
2018-05-16T02:43:33.156Z,99.90
2018-05-16T02:46:00.675Z,99.90
2018-05-16T02:48:28.172Z,99.90
2018-05-16T02:50:56.455Z,99.90
2018-05-16T02:53:24.728Z,99.90
2018-05-16T02:55:53.024Z,99.90
2018-05-16T02:58:21.279Z,99.90
2018-05-16T03:00:48.795Z,99.90
2018-05-16T03:03:17.056Z,99.90
2018-05-16T03:05:44.572Z,99.90
2018-05-16T03:08:12.076Z,99.90
2018-05-16T03:10:39.591Z,99.90
2018-05-16T03:13:07.879Z,99.90
2018-05-16T03:15:36.140Z,99.90
2018-05-16T03:18:03.655Z,99.90
2018-05-16T03:20:31.152Z,99.90
2018-05-16T03:22:58.672Z,99.90
2018-05-16T03:25:26.172Z,99.90
2018-05-16T03:27:53.698Z,99.90
2018-05-16T03:30:21.184Z,99.90
2018-05-16T03:32:49.463Z,99.90
2018-05-16T03:35:16.960Z,99.90
2018-05-16T03:37:45.243Z,99.90
2018-05-16T03:40:12.737Z,99.90
2018-05-16T03:42:40.256Z,99.90
2018-05-16T03:45:07.751Z,99.90
2018-05-16T03:47:36.045Z,99.90
2018-05-16T03:50:04.309Z,99.90
2018-05-16T03:52:31.823Z,99.90
2018-05-16T03:54:59.316Z,99.90
2018-05-16T03:57:38.759Z,99.90
2018-05-16T04:03:24.324Z,99.90
2018-05-16T04:05:51.824Z,99.90
2018-05-16T04:08:20.104Z,99.90
2018-05-16T04:10:47.620Z,99.90
2018-05-16T04:13:15.143Z,99.90
2018-05-16T04:15:42.639Z,99.90
2018-05-16T04:18:10.162Z,99.90
2018-05-16T04:20:37.654Z,99.90
2018-05-16T04:23:05.171Z,99.90
2018-05-16T04:25:32.667Z,99.90
2018-05-16T04:28:00.187Z,99.90
2018-05-16T04:30:29.962Z,99.90
2018-05-16T04:32:57.591Z,99.90
2018-05-16T04:35:25.923Z,99.90
2018-05-16T04:37:53.387Z,99.90
2018-05-16T04:40:20.884Z,99.90
2018-05-16T04:42:48.404Z,99.90
2018-05-16T04:45:16.663Z,99.90
2018-05-16T04:47:44.179Z,99.90
2018-05-16T04:50:11.683Z,99.90
2018-05-16T04:52:39.203Z,99.90
2018-05-16T04:55:07.476Z,99.90
2018-05-16T04:57:34.999Z,99.90
2018-05-16T05:00:02.503Z,99.90
2018-05-16T05:02:30.021Z,99.90
2018-05-16T05:04:58.328Z,99.90
2018-05-16T05:07:25.856Z,99.90
2018-05-16T05:09:53.360Z,99.90
2018-05-16T05:12:20.884Z,99.90
2018-05-16T05:14:48.399Z,99.90
2018-05-16T05:17:15.916Z,99.90
2018-05-16T05:19:44.172Z,99.90
2018-05-16T05:22:11.667Z,99.90
2018-05-16T05:24:39.179Z,99.90
2018-05-16T05:27:07.459Z,99.90
2018-05-16T05:29:34.976Z,99.90
2018-05-16T05:32:02.475Z,99.90
2018-05-16T05:34:29.987Z,99.90
2018-05-16T05:36:58.347Z,99.90
2018-05-16T05:39:26.560Z,99.90
2018-05-16T05:41:54.834Z,99.90
2018-05-16T05:44:22.351Z,99.90
2018-05-16T05:46:49.838Z,99.90
2018-05-16T05:49:17.398Z,99.90
2018-05-16T05:51:44.891Z,99.90
2018-05-16T05:54:12.400Z,99.90
2018-05-16T05:56:39.896Z,99.90
2018-05-16T05:59:08.172Z,99.90
2018-05-16T06:01:36.435Z,99.90
2018-05-16T06:04:03.980Z,99.90
2018-05-16T06:06:31.469Z,99.90
2018-05-16T06:08:58.997Z,99.90
2018-05-16T06:11:26.500Z,99.90
2018-05-16T06:13:54.016Z,99.90
2018-05-16T06:16:22.317Z,99.90
2018-05-16T06:18:49.835Z,99.90
2018-05-16T06:21:17.328Z,99.90
2018-05-16T06:23:44.852Z,99.90
2018-05-16T06:26:12.356Z,99.90
2018-05-16T06:28:39.873Z,99.90
2018-05-16T06:31:08.147Z,99.80
2018-05-16T06:33:36.444Z,98.70
2018-05-16T06:36:04.703Z,97.40
2018-05-16T06:38:32.232Z,97.40
2018-05-16T06:40:59.761Z,98.30
2018-05-16T06:43:27.287Z,98.40
2018-05-16T06:45:54.861Z,99.50
2018-05-16T06:48:23.113Z,98.60
2018-05-16T06:50:51.378Z,98.80
2018-05-16T06:53:18.918Z,98.90
2018-05-16T06:55:46.396Z,99.90
2018-05-16T06:58:13.920Z,99.90
2018-05-16T07:00:41.423Z,98.90
2018-05-16T07:03:08.927Z,99.40
2018-05-16T07:05:36.459Z,99.90
2018-05-16T07:08:03.971Z,99.10
2018-05-16T07:10:31.484Z,99.60
2018-05-16T07:12:58.976Z,98.80
2018-05-16T07:15:26.495Z,99.90
2018-05-16T07:17:54.787Z,99.90
2018-05-16T07:20:23.075Z,99.90
2018-05-16T07:22:51.396Z,99.90
2018-05-16T07:25:18.880Z,99.90
2018-05-16T07:27:46.372Z,99.90
2018-05-16T07:30:13.896Z,99.90
2018-05-16T07:32:41.392Z,99.90
2018-05-16T07:35:08.940Z,99.90
2018-05-16T07:37:36.442Z,99.90
2018-05-16T07:40:03.964Z,99.90
2018-05-16T07:42:32.236Z,99.90
2018-05-16T07:44:59.759Z,99.90
2018-05-16T07:47:27.256Z,99.90
2018-05-16T07:49:54.795Z,99.90
2018-05-16T07:52:22.316Z,99.90
2018-05-16T07:54:49.829Z,99.90
2018-05-16T07:57:17.331Z,99.90
2018-05-16T07:59:44.856Z,99.90
2018-05-16T08:02:13.127Z,99.90
2018-05-16T08:04:40.647Z,99.90
2018-05-16T08:07:08.140Z,99.90
2018-05-16T08:09:35.665Z,99.90
2018-05-16T08:12:03.931Z,99.90
2018-05-16T08:14:31.449Z,99.90
2018-05-16T08:16:58.968Z,99.90
2018-05-16T08:19:26.487Z,99.90
2018-05-16T08:21:54.050Z,99.90
2018-05-16T08:24:21.531Z,99.90
2018-05-16T08:26:49.022Z,99.90
2018-05-16T08:29:16.543Z,99.90
2018-05-16T08:31:44.807Z,99.90
2018-05-16T08:34:12.318Z,99.90
2018-05-16T08:36:40.671Z,99.90
2018-05-16T08:39:08.119Z,99.90
2018-05-16T08:41:35.643Z,99.90
2018-05-16T08:44:03.908Z,99.90
2018-05-16T08:46:31.433Z,99.90
2018-05-16T08:48:58.939Z,99.90
2018-05-16T08:51:26.461Z,99.90
2018-05-16T08:53:53.964Z,99.90
2018-05-16T08:56:21.499Z,99.90
2018-05-16T08:58:49.009Z,99.90
2018-05-16T09:01:16.614Z,99.90
2018-05-16T09:03:44.815Z,99.90
2018-05-16T09:06:13.095Z,99.90
2018-05-16T09:08:40.590Z,99.90
2018-05-16T09:11:08.909Z,99.90
2018-05-16T09:13:36.570Z,99.90
2018-05-16T09:16:04.526Z,99.90
2018-05-16T09:18:32.503Z,99.90
2018-05-16T09:21:00.089Z,99.90
2018-05-16T09:23:28.363Z,99.90
2018-05-16T09:25:55.889Z,99.90
2018-05-16T09:28:23.415Z,99.90
2018-05-16T09:30:51.736Z,99.90
2018-05-16T09:33:19.239Z,99.90
2018-05-16T09:35:46.759Z,99.90
2018-05-16T09:38:14.255Z,99.90
2018-05-16T09:40:41.784Z,99.90
2018-05-16T09:43:10.328Z,99.90
2018-05-16T09:45:37.894Z,99.90
2018-05-16T09:48:05.386Z,99.80
2018-05-16T09:50:32.924Z,99.80
2018-05-16T09:53:00.427Z,99.90
2018-05-16T09:55:27.955Z,99.90
2018-05-16T09:57:55.503Z,99.90
2018-05-16T10:00:28.611Z,98.10
2018-05-16T10:02:56.136Z,98.00
2018-05-16T10:05:23.672Z,98.00
2018-05-16T10:07:51.939Z,97.30
2018-05-16T10:10:19.460Z,97.30
2018-05-16T10:12:46.953Z,98.70
2018-05-16T10:15:14.523Z,97.60
2018-05-16T10:17:42.045Z,98.10
2018-05-16T10:20:10.353Z,97.50
2018-05-16T10:22:38.664Z,96.90
2018-05-16T10:25:06.178Z,97.00
2018-05-16T10:27:34.464Z,96.70
2018-05-16T10:30:01.982Z,96.60
2018-05-16T10:32:29.516Z,96.50
2018-05-16T10:34:57.840Z,94.40
2018-05-16T10:37:25.375Z,94.50
2018-05-16T10:39:53.705Z,94.10
2018-05-16T10:42:21.227Z,94.00
2018-05-16T10:44:48.723Z,94.80
2018-05-16T10:47:16.999Z,94.00
2018-05-16T10:49:45.282Z,94.10
2018-05-16T10:52:12.811Z,94.10
2018-05-16T10:54:40.327Z,95.10
2018-05-16T10:57:08.614Z,95.00
2018-05-16T10:59:36.115Z,95.00
2018-05-16T11:02:03.637Z,95.30
2018-05-16T11:04:31.293Z,94.70
2018-05-16T11:06:58.818Z,94.10
2018-05-16T11:09:27.080Z,94.30
2018-05-16T11:11:54.606Z,94.30
2018-05-16T11:14:23.067Z,94.40
2018-05-16T11:16:51.490Z,95.10
2018-05-16T11:19:19.154Z,95.10
2018-05-16T11:21:46.787Z,94.70
2018-05-16T11:24:14.457Z,94.10
2018-05-16T11:26:42.236Z,93.20
2018-05-16T11:29:10.662Z,92.70
2018-05-16T11:31:39.066Z,93.20
2018-05-16T11:34:06.599Z,93.20
2018-05-16T11:36:34.207Z,93.90
2018-05-16T11:39:01.918Z,93.70
2018-05-16T11:41:29.641Z,95.00
2018-05-16T11:43:58.013Z,96.50
2018-05-16T11:46:26.494Z,96.50
2018-05-16T11:48:54.995Z,97.70
2018-05-16T11:51:22.518Z,97.70
2018-05-16T11:53:50.177Z,95.60
2018-05-16T11:56:17.785Z,96.50
2018-05-16T11:58:45.389Z,94.90
2018-05-16T12:01:13.067Z,94.30
2018-05-16T12:03:40.641Z,92.00
2018-05-16T12:06:08.344Z,91.40
2018-05-16T12:08:35.893Z,90.40
2018-05-16T12:11:03.416Z,90.20
2018-05-16T12:13:30.931Z,87.10
2018-05-16T12:15:58.436Z,86.00
2018-05-16T12:18:25.959Z,86.70
2018-05-16T12:20:53.447Z,85.90
2018-05-16T12:23:20.981Z,86.20
2018-05-16T12:25:48.492Z,88.20
2018-05-16T12:28:16.009Z,88.70
2018-05-16T12:30:43.508Z,90.40
2018-05-16T12:33:11.028Z,92.50
2018-05-16T12:35:38.530Z,95.90
2018-05-16T12:38:06.065Z,94.60
2018-05-16T12:40:34.333Z,96.70
2018-05-16T12:43:22.595Z,96.70
2018-05-16T12:45:50.097Z,98.40
2018-05-16T12:48:18.373Z,97.90
2018-05-16T12:50:46.737Z,96.40
2018-05-16T12:53:16.877Z,96.40
2018-05-16T12:55:45.659Z,96.40
2018-05-16T12:58:13.384Z,95.40
2018-05-16T13:00:41.677Z,95.90
2018-05-16T13:03:09.199Z,95.90
2018-05-16T13:05:36.704Z,95.60
2018-05-16T13:08:04.254Z,94.80
2018-05-16T13:10:31.751Z,95.70
2018-05-16T13:12:59.361Z,93.80
2018-05-16T13:15:26.796Z,95.00
2018-05-16T13:17:55.111Z,93.20
2018-05-16T13:20:22.627Z,93.20
2018-05-16T13:22:50.163Z,92.90
2018-05-16T13:25:17.816Z,90.30
2018-05-16T13:27:45.364Z,90.20
2018-05-16T13:30:12.869Z,90.80
2018-05-16T13:32:40.525Z,90.20
2018-05-16T13:35:08.084Z,90.60
2018-05-16T13:37:35.700Z,90.30
2018-05-16T13:40:03.199Z,89.00
2018-05-16T13:42:30.715Z,88.10
2018-05-16T13:44:58.999Z,85.30
2018-05-16T13:47:26.519Z,85.40
2018-05-16T13:49:54.028Z,85.80
2018-05-16T13:52:21.560Z,87.20
2018-05-16T13:54:49.051Z,85.30
2018-05-16T13:57:16.551Z,88.00
2018-05-16T13:59:44.871Z,83.60
2018-05-16T14:02:12.365Z,83.50
2018-05-16T14:04:40.033Z,82.50
2018-05-16T14:07:07.524Z,82.40
2018-05-16T14:09:35.061Z,82.40
2018-05-16T14:12:02.564Z,81.00
2018-05-16T14:14:30.104Z,82.90
2018-05-16T14:16:57.617Z,83.30
2018-05-16T14:19:25.160Z,84.70
2018-05-16T14:21:52.679Z,85.60
2018-05-16T14:24:20.203Z,84.50
2018-05-16T14:26:47.722Z,83.40
2018-05-16T14:29:15.281Z,84.80
2018-05-16T14:31:42.779Z,85.80
2018-05-16T14:34:11.058Z,86.90
2018-05-16T14:36:38.561Z,86.90
2018-05-16T14:39:06.092Z,87.10
2018-05-16T14:41:33.613Z,91.50
2018-05-16T14:44:01.132Z,93.60
2018-05-16T14:46:28.649Z,97.90
2018-05-16T14:48:56.188Z,98.00
2018-05-16T14:51:24.503Z,99.90
2018-05-16T14:53:52.035Z,99.90
2018-05-16T14:56:20.336Z,99.90
2018-05-16T14:58:47.862Z,99.90
2018-05-16T15:01:15.367Z,99.90
2018-05-16T15:03:43.746Z,99.90
2018-05-16T15:06:11.240Z,99.90
2018-05-16T15:08:38.764Z,99.90
2018-05-16T15:11:06.287Z,99.90
2018-05-16T15:13:33.808Z,99.90
2018-05-16T15:16:01.309Z,99.90
2018-05-16T15:18:28.841Z,99.90
2018-05-16T15:20:56.371Z,99.90
2018-05-16T15:23:23.911Z,99.90
2018-05-16T15:25:51.427Z,98.30
2018-05-16T15:28:18.959Z,97.30
2018-05-16T15:30:46.460Z,97.30
2018-05-16T15:33:14.728Z,97.50
2018-05-16T15:35:42.243Z,97.20
2018-05-16T15:38:10.499Z,99.20
2018-05-16T15:40:38.020Z,99.20
2018-05-16T15:43:05.591Z,98.50
2018-05-16T15:45:33.107Z,97.70
2018-05-16T15:48:00.617Z,96.80
2018-05-16T15:50:28.899Z,97.70
2018-05-16T15:52:57.174Z,97.00
2018-05-16T15:55:24.705Z,97.00
2018-05-16T15:57:52.568Z,96.50
2018-05-16T16:00:20.097Z,95.50
2018-05-16T16:02:47.597Z,96.00
2018-05-16T16:05:15.136Z,97.60
2018-05-16T16:07:42.632Z,98.70
2018-05-16T16:10:10.932Z,99.80
2018-05-16T16:12:38.432Z,99.80
2018-05-16T16:15:05.951Z,99.70
2018-05-16T16:17:34.228Z,98.30
2018-05-16T16:20:01.744Z,98.30
2018-05-16T16:22:29.287Z,98.20
2018-05-16T16:24:57.618Z,97.10
2018-05-16T16:27:25.145Z,97.10
2018-05-16T16:29:52.675Z,96.20
2018-05-16T16:32:20.189Z,97.70
2018-05-16T16:34:47.701Z,97.40
2018-05-16T16:37:15.198Z,98.90
2018-05-16T16:39:42.714Z,97.10
2018-05-16T16:42:10.985Z,97.60
2018-05-16T16:44:38.604Z,97.60
2018-05-16T16:47:06.159Z,98.00
2018-05-16T16:49:33.675Z,96.40
2018-05-16T16:52:01.233Z,97.70
2018-05-16T16:54:28.781Z,97.10
2018-05-16T16:56:57.031Z,97.40
2018-05-16T16:59:25.338Z,96.60
2018-05-16T17:01:53.613Z,97.80
2018-05-16T17:04:21.165Z,97.50
2018-05-16T17:06:48.699Z,97.10
2018-05-16T17:09:16.269Z,96.70
2018-05-16T17:11:43.891Z,97.40
2018-05-16T17:14:12.281Z,97.20
2018-05-16T17:16:39.823Z,97.00
2018-05-16T17:19:07.400Z,97.10
2018-05-16T17:21:35.139Z,97.30
2018-05-16T17:24:06.712Z,96.90
2018-05-16T17:26:34.384Z,97.30
2018-05-16T17:29:01.958Z,97.00
2018-05-16T17:31:30.332Z,97.30
2018-05-16T17:33:58.784Z,97.30
2018-05-16T17:36:26.507Z,97.80
2018-05-16T17:38:54.226Z,96.40
2018-05-16T17:41:22.528Z,97.20
2018-05-16T17:43:50.162Z,97.30
2018-05-16T17:46:17.832Z,95.90
2018-05-16T17:48:46.151Z,98.00
2018-05-16T17:51:13.688Z,97.70
2018-05-16T17:53:41.416Z,97.50
2018-05-16T17:56:08.980Z,97.40
2018-05-16T17:58:36.498Z,97.10
2018-05-16T18:01:05.293Z,97.30
2018-05-16T18:03:32.808Z,97.70
2018-05-16T18:06:01.132Z,96.80
2018-05-16T18:08:28.651Z,96.80
2018-05-16T18:10:57.282Z,96.90
2018-05-16T18:16:50.805Z,97.20
2018-05-16T18:19:18.480Z,97.10
2018-05-16T18:21:46.368Z,96.90
2018-05-16T18:24:14.204Z,96.50
2018-05-16T18:26:42.570Z,96.70
2018-05-16T18:29:10.073Z,96.90
2018-05-16T18:31:37.604Z,96.60
2018-05-16T18:34:05.133Z,96.40
2018-05-16T18:36:32.670Z,97.40
2018-05-16T18:39:00.954Z,97.20
2018-05-16T18:41:29.245Z,97.30
2018-05-16T18:43:56.816Z,97.00
2018-05-16T18:46:24.394Z,96.60
2018-05-16T18:48:52.735Z,96.80
2018-05-16T18:51:20.264Z,96.70
2018-05-16T18:53:48.558Z,97.00
2018-05-16T18:56:16.859Z,97.30
2018-05-16T18:58:44.435Z,97.20
2018-05-16T19:01:11.972Z,97.30
2018-05-16T19:03:39.483Z,97.90
2018-05-16T19:06:07.017Z,98.20
2018-05-16T19:08:35.311Z,98.90
2018-05-16T19:11:02.840Z,99.20
2018-05-16T19:13:30.332Z,99.70
2018-05-16T19:15:57.868Z,99.50
2018-05-16T19:18:25.448Z,99.40
2018-05-16T19:20:52.993Z,99.30
2018-05-16T19:23:20.616Z,99.40
2018-05-16T19:25:48.128Z,99.50
2018-05-16T19:28:15.660Z,99.10
2018-05-16T19:30:43.175Z,99.30
2018-05-16T19:33:10.707Z,99.00
2018-05-16T19:35:38.991Z,99.30
2018-05-16T19:38:06.520Z,99.30
2018-05-16T19:40:34.123Z,99.50
2018-05-16T19:43:01.593Z,99.80
2018-05-16T19:45:29.293Z,99.80
2018-05-16T19:47:56.831Z,99.90
2018-05-16T19:50:24.343Z,99.90
2018-05-16T19:52:51.912Z,99.90
2018-05-16T19:55:19.424Z,99.90
2018-05-16T19:57:46.968Z,99.90
2018-05-16T20:00:15.235Z,99.90
2018-05-16T20:02:42.764Z,99.90
2018-05-16T20:05:10.306Z,99.90
2018-05-16T20:07:37.833Z,99.90
2018-05-16T20:10:05.345Z,99.90
2018-05-16T20:12:33.642Z,99.90
2018-05-16T20:15:01.920Z,99.90
2018-05-16T20:17:30.204Z,99.90
2018-05-16T20:19:57.727Z,99.90
2018-05-16T20:22:25.256Z,99.90
2018-05-16T20:24:52.801Z,99.90
2018-05-16T20:27:20.330Z,99.90
2018-05-16T20:29:47.846Z,99.90
2018-05-16T20:32:15.359Z,99.90
2018-05-16T20:34:42.859Z,99.90
2018-05-16T20:37:10.389Z,99.90
2018-05-16T20:39:38.738Z,99.90
2018-05-16T20:42:06.264Z,99.90
2018-05-16T20:44:33.760Z,99.90
2018-05-16T20:47:01.280Z,99.90
2018-05-16T20:49:29.555Z,99.90
2018-05-16T20:51:57.081Z,99.90
2018-05-16T20:54:24.595Z,99.90
2018-05-16T20:56:52.352Z,99.90
2018-05-16T20:59:19.867Z,99.90
2018-05-16T21:01:47.358Z,99.90
2018-05-16T21:04:14.880Z,99.90
2018-05-16T21:06:42.401Z,99.90
2018-05-16T21:09:09.961Z,99.90
2018-05-16T21:11:37.476Z,99.90
2018-05-16T21:14:05.003Z,99.90
2018-05-16T21:16:33.263Z,99.90
2018-05-16T21:19:00.784Z,99.90
2018-05-16T21:21:28.295Z,99.90
2018-05-16T21:23:55.811Z,99.90
2018-05-16T21:26:24.077Z,99.90
2018-05-16T21:28:51.605Z,99.90
2018-05-16T21:31:19.107Z,99.90
2018-05-16T21:33:46.624Z,99.90
2018-05-16T21:36:14.148Z,99.90
2018-05-16T21:38:41.683Z,99.90
2018-05-16T21:41:09.192Z,99.90
2018-05-16T21:43:36.718Z,99.90
2018-05-16T21:46:04.226Z,99.90
2018-05-16T21:48:31.765Z,99.90
2018-05-16T21:50:59.296Z,99.90
2018-05-16T21:53:26.811Z,99.90
2018-05-16T21:55:54.319Z,99.90
2018-05-16T21:58:21.835Z,99.90
2018-05-16T22:00:49.334Z,99.90
2018-05-16T22:03:16.852Z,99.90
2018-05-16T22:05:45.141Z,99.90
2018-05-16T22:08:13.437Z,99.90
2018-05-16T22:10:41.767Z,99.90
2018-05-16T22:13:09.255Z,99.90
2018-05-16T22:15:36.769Z,99.90
2018-05-16T22:18:05.063Z,99.90
2018-05-16T22:20:33.348Z,99.90
2018-05-16T22:23:01.642Z,99.90
2018-05-16T22:25:29.921Z,99.90
2018-05-16T22:27:57.479Z,99.90
2018-05-16T22:30:30.595Z,99.90
2018-05-16T22:33:03.825Z,99.90
2018-05-16T22:35:37.141Z,99.90
2018-05-16T22:38:10.295Z,99.90
2018-05-16T22:40:43.356Z,99.80
2018-05-16T22:43:10.387Z,99.90
2018-05-16T22:45:43.629Z,99.90
2018-05-16T22:48:11.156Z,99.90
2018-05-16T22:50:38.679Z,99.60
2018-05-16T22:53:06.200Z,99.50
2018-05-16T22:55:33.725Z,99.60
2018-05-16T22:58:01.247Z,99.60
2018-05-16T23:00:29.565Z,99.80
2018-05-16T23:02:57.175Z,99.70
2018-05-16T23:05:25.683Z,99.40
2018-05-16T23:07:54.003Z,99.50
2018-05-16T23:10:22.296Z,99.70
2018-05-16T23:12:50.647Z,99.60
2018-05-16T23:15:18.951Z,99.90
2018-05-16T23:17:46.575Z,99.90
2018-05-16T23:20:14.107Z,99.40
2018-05-16T23:22:41.660Z,99.70
2018-05-16T23:25:09.207Z,99.90
2018-05-16T23:27:36.706Z,99.90
2018-05-16T23:30:04.235Z,99.70
2018-05-16T23:32:31.731Z,99.60
2018-05-16T23:34:59.251Z,99.60
2018-05-16T23:37:27.509Z,99.60
2018-05-16T23:39:55.091Z,99.60
2018-05-16T23:42:22.596Z,99.90
2018-05-16T23:44:50.132Z,99.80
2018-05-16T23:47:17.623Z,99.70
2018-05-16T23:49:45.920Z,99.90
2018-05-16T23:52:14.195Z,99.90
2018-05-16T23:54:42.482Z,99.90
2018-05-16T23:57:10.784Z,99.90
2018-05-16T23:59:39.038Z,99.90
